CheckWX is a tool to help pilots better visualize weather data.  It is not intended as a substitute for an official pre-flight weather briefing.

05:11:02 UTC

KTMB TAF
Miami Executive Airport
Miami, Florida, USA
KTMB 230255Z 2303/2324 VRB03KT P6SM SKC FM231500 10011KT P6SM SKC

Mar-23@
03:00 UTC

Mar-23 @ 03:00 UTC

Mar-23@
15:00 UTC

Mar-23 @ 15:00 UTC

KTMB 230255Z 2303/2324 VRB03KT P6SM SKC
Wind
  • Variable at 3 KTS
Cloud Levels
  • Clear skies

Mar-23@
15:00 UTC

Mar-23 @ 15:00 UTC

Mar-24@
00:00 UTC

Mar-24 @ 00:00 UTC

FM231500 10011KT P6SM SKC

From

From Standard forecast or significant change

Wind
  • 100° at 11 KTS
Cloud Levels
  • Clear skies